KCKN/CKN METAR and TAF weather

Enter ICAO airport designator
Station Type Date Time Source
KCKN METAR 2018/07/17 00:15 UTC NOAA

KCKN 170015Z AUTO 35008KT 10SM CLR 22/11 A3007 RMK AO2


Station Type Date Time Source
KCKN Decoded METAR 2018/07/17 00:15 UTC NOAA

Crookston Municipal Field, MN, United States (KCKN) 47-51N 096-37W
Jul 16, 2018 - 08:15 PM EDT / 2018.07.17 0015 UTC
Wind: from the N (350 degrees) at 9 MPH (8 KT):0
Visibility: 10 mile(s):0
Sky conditions: clear
Temperature: 71 F (22 C)
Dew Point: 51 F (11 C)
Relative Humidity: 49%
Pressure (altimeter): 30.07 in. Hg (1018 hPa)
ob: KCKN 170015Z AUTO 35008KT 10SM CLR 22/11 A3007 RMK AO2
cycle: 0

Station Type Date Time Source
KCKN TAF UTC NOAA

Error!


Example: see airport list